Time;durP1;ratioP1;P1;durP2;ratioP2;P2;SDS_P1;SDS_P2;PMS_P1;PMS_P2;Temp;Humidity;BMP_temperature;BMP_pressure;BME280_temperature;BME280_humidity;BME280_pressure;Samples;Min_cycle;Max_cycle;Signal;HPM_P1;HPM_P2
2023/12/02 03:59:26;;;;;;;;;49.33;38.00;;;;;;;;5020958;23;46885;-75
2023/12/02 04:01:51;;;;;;;;;45.33;37.33;;;;;;;;4943982;28;44748;-75
2023/12/02 04:04:17;;;;;;;;;35.33;33.00;;;;;;;;4959991;28;45261;-75
2023/12/02 04:06:44;;;;;;;;;51.00;38.67;;;;;;;;4961212;28;45995;-75
2023/12/02 04:09:09;;;;;;;;;48.00;33.67;;;;;;;;4955261;28;45383;-75
2023/12/02 04:11:34;;;;;;;;;52.67;42.00;;;;;;;;4960821;28;45427;-76
2023/12/02 04:13:59;;;;;;;;;42.67;34.67;;;;;;;;4959031;28;45382;-76
2023/12/02 04:16:25;;;;;;;;;42.00;35.00;;;;;;;;4961762;28;45362;-77
2023/12/02 04:18:50;;;;;;;;;31.33;26.00;;;;;;;;4960138;28;45436;-74
2023/12/02 04:21:15;;;;;;;;;47.67;37.33;;;;;;;;4944542;28;45208;-73
2023/12/02 04:23:40;;;;;;;;;47.00;41.00;;;;;;;;4942552;28;45350;-72
2023/12/02 04:26:06;;;;;;;;;56.00;36.00;;;;;;;;4960924;28;46370;-72
2023/12/02 04:28:32;;;;;;;;;44.67;36.67;;;;;;;;4942700;28;45505;-73
2023/12/02 04:30:57;;;;;;;;;53.67;44.33;;;;;;;;4961094;28;45353;-74
2023/12/02 04:33:22;;;;;;;;;46.67;33.33;;;;;;;;4959352;28;45492;-75
2023/12/02 04:35:47;;;;;;;;;57.00;41.33;;;;;;;;4960774;28;45543;-74
2023/12/02 04:38:12;;;;;;;;;45.00;39.00;;;;;;;;4959033;28;45242;-74
2023/12/02 04:40:38;;;;;;;;;44.33;35.00;;;;;;;;4960485;28;45223;-72
2023/12/02 04:43:03;;;;;;;;;59.00;37.00;;;;;;;;4959036;28;45665;-72
2023/12/02 04:45:28;;;;;;;;;44.33;36.00;;;;;;;;4943582;28;46587;-72
2023/12/02 04:47:53;;;;;;;;;46.00;36.33;;;;;;;;4959491;28;44752;-74
2023/12/02 04:50:18;;;;;;;;;41.00;31.00;;;;;;;;4944658;28;45240;-72
2023/12/02 04:52:43;;;;;;;;;38.33;25.00;;;;;;;;4958702;28;45441;-74
2023/12/02 04:55:09;;;;;;;;;52.33;41.33;;;;;;;;4961499;28;45450;-74
2023/12/02 04:57:34;;;;;;;;;60.67;42.33;;;;;;;;4958155;28;45285;-74
2023/12/02 04:59:59;;;;;;;;;43.67;32.67;;;;;;;;4949574;28;45575;-72
2023/12/02 05:02:25;;;;;;;;;51.33;39.00;;;;;;;;4940112;28;47006;-73
2023/12/02 05:04:50;;;;;;;;;45.00;40.33;;;;;;;;4954869;28;45641;-73
2023/12/02 05:07:15;;;;;;;;;42.67;29.00;;;;;;;;4950597;28;45452;-73
2023/12/02 05:09:40;;;;;;;;;49.00;36.67;;;;;;;;4955678;28;45313;-72
2023/12/02 05:12:06;;;;;;;;;42.00;29.33;;;;;;;;4958551;28;45695;-72
2023/12/02 05:14:31;;;;;;;;;39.00;35.33;;;;;;;;4939527;28;46259;-72
2023/12/02 05:16:57;;;;;;;;;44.67;37.33;;;;;;;;4958578;28;45368;-72
2023/12/02 05:19:22;;;;;;;;;45.67;40.33;;;;;;;;4954048;28;45347;-72
2023/12/02 05:21:47;;;;;;;;;49.33;40.67;;;;;;;;4958868;28;46358;-72
2023/12/02 05:24:12;;;;;;;;;50.00;41.33;;;;;;;;4941069;28;46764;-72
2023/12/02 05:26:37;;;;;;;;;44.33;34.67;;;;;;;;4941213;28;45201;-72
2023/12/02 05:29:03;;;;;;;;;56.67;42.00;;;;;;;;4953104;28;45586;-72
2023/12/02 05:31:28;;;;;;;;;53.33;39.67;;;;;;;;4941695;28;45604;-72
2023/12/02 05:33:53;;;;;;;;;49.33;38.00;;;;;;;;4939994;28;47139;-72
2023/12/02 05:36:18;;;;;;;;;42.00;36.33;;;;;;;;4959107;28;45279;-72
2023/12/02 05:38:43;;;;;;;;;54.33;44.00;;;;;;;;4940966;28;45432;-72
2023/12/02 05:41:08;;;;;;;;;47.00;32.33;;;;;;;;4962626;28;45630;-72
2023/12/02 05:43:34;;;;;;;;;40.33;32.67;;;;;;;;4955569;28;46428;-72
2023/12/02 05:45:59;;;;;;;;;45.33;39.33;;;;;;;;4957371;28;45544;-73
2023/12/02 05:48:24;;;;;;;;;50.00;33.33;;;;;;;;4958265;28;45281;-74
2023/12/02 05:50:50;;;;;;;;;59.67;42.00;;;;;;;;4958612;28;45269;-72
2023/12/02 05:53:15;;;;;;;;;60.00;44.00;;;;;;;;4939195;28;46892;-73
2023/12/02 05:55:40;;;;;;;;;56.67;40.67;;;;;;;;4964880;28;44794;-72
2023/12/02 05:58:05;;;;;;;;;50.33;36.00;;;;;;;;4956088;28;45358;-72
2023/12/02 06:00:31;;;;;;;;;49.67;29.33;;;;;;;;4943145;28;45417;-72
2023/12/02 06:02:56;;;;;;;;;55.00;40.33;;;;;;;;4954521;28;45555;-72
2023/12/02 06:05:21;;;;;;;;;24.67;19.00;;;;;;;;4941321;28;45192;-71
2023/12/02 06:07:46;;;;;;;;;46.67;40.00;;;;;;;;4942472;28;45364;-72
2023/12/02 06:10:12;;;;;;;;;50.33;40.00;;;;;;;;4947631;28;45387;-72
2023/12/02 06:12:37;;;;;;;;;54.33;35.00;;;;;;;;4960208;28;45626;-72
2023/12/02 06:15:03;;;;;;;;;50.67;44.00;;;;;;;;4950420;28;45575;-74
2023/12/02 06:17:29;;;;;;;;;41.67;35.00;;;;;;;;4949907;28;45756;-74
2023/12/02 06:19:54;;;;;;;;;52.33;41.00;;;;;;;;4962344;28;45754;-73
2023/12/02 06:22:19;;;;;;;;;43.25;36.00;;;;;;;;4963672;28;45364;-73
2023/12/02 06:24:44;;;;;;;;;51.67;42.00;;;;;;;;4956941;28;45613;-73
2023/12/02 06:27:10;;;;;;;;;49.67;38.00;;;;;;;;4966641;28;45345;-73
2023/12/02 06:29:35;;;;;;;;;59.33;45.00;;;;;;;;4956231;28;45345;-73
2023/12/02 06:32:00;;;;;;;;;63.33;46.33;;;;;;;;4965697;28;46279;-75
2023/12/02 06:34:25;;;;;;;;;61.67;45.33;;;;;;;;4958810;28;45403;-73
2023/12/02 06:36:50;;;;;;;;;49.00;39.33;;;;;;;;4961345;28;45275;-73
2023/12/02 06:39:16;;;;;;;;;65.33;48.00;;;;;;;;4959261;28;45428;-73
2023/12/02 06:41:41;;;;;;;;;87.00;64.75;;;;;;;;4944047;28;47860;-73
2023/12/02 06:44:10;;;;;;;;;54.67;46.00;;;;;;;;4957085;28;45389;-72
2023/12/02 06:46:35;;;;;;;;;64.00;49.33;;;;;;;;4962258;28;44804;-72
2023/12/02 06:49:01;;;;;;;;;63.33;49.67;;;;;;;;4956110;28;45322;-72
2023/12/02 06:51:28;;;;;;;;;58.33;41.00;;;;;;;;4944693;28;45700;-73
2023/12/02 06:53:57;;;;;;;;;56.67;44.67;;;;;;;;4959092;28;45468;-72
2023/12/02 06:56:22;;;;;;;;;76.67;61.67;;;;;;;;4962316;28;45216;-73
2023/12/02 06:58:49;;;;;;;;;43.00;41.33;;;;;;;;4956370;28;45346;-73
2023/12/02 07:01:24;;;;;;;;;63.67;41.33;;;;;;;;4962194;28;45491;-73
2023/12/02 07:03:50;;;;;;;;;60.67;45.67;;;;;;;;4955697;28;45432;-73
2023/12/02 07:06:15;;;;;;;;;63.67;46.67;;;;;;;;4967297;28;45310;-72
2023/12/02 07:08:40;;;;;;;;;45.33;34.33;;;;;;;;4956807;28;45409;-72
2023/12/02 07:11:05;;;;;;;;;49.33;33.00;;;;;;;;4962010;28;46250;-72
2023/12/02 07:13:31;;;;;;;;;55.00;37.00;;;;;;;;4955204;28;45357;-73
2023/12/02 07:15:56;;;;;;;;;53.33;41.00;;;;;;;;4962281;28;45195;-73
2023/12/02 07:18:21;;;;;;;;;63.67;45.33;;;;;;;;4943317;28;46290;-73
2023/12/02 07:20:46;;;;;;;;;57.67;42.00;;;;;;;;4961319;28;45452;-73
2023/12/02 07:23:11;;;;;;;;;56.67;37.67;;;;;;;;4957315;28;45256;-73
2023/12/02 07:25:36;;;;;;;;;56.33;43.33;;;;;;;;4961729;28;45267;-74
2023/12/02 07:28:02;;;;;;;;;49.00;41.33;;;;;;;;4958420;28;45301;-74
2023/12/02 07:30:27;;;;;;;;;59.00;43.33;;;;;;;;4961340;28;46563;-74
2023/12/02 07:32:53;;;;;;;;;60.33;42.67;;;;;;;;4942831;28;45244;-74
2023/12/02 07:35:18;;;;;;;;;57.33;42.67;;;;;;;;4963724;28;45303;-74
2023/12/02 07:37:47;;;;;;;;;55.33;42.00;;;;;;;;4963062;28;45463;-73
2023/12/02 07:40:12;;;;;;;;;60.67;44.67;;;;;;;;4967724;28;45315;-74
2023/12/02 07:42:37;;;;;;;;;68.33;44.67;;;;;;;;4944322;28;45689;-76
2023/12/02 07:45:03;;;;;;;;;63.25;47.75;;;;;;;;4963728;28;45222;-74
2023/12/02 07:47:28;;;;;;;;;57.00;45.33;;;;;;;;4961643;28;45212;-73
2023/12/02 07:49:53;;;;;;;;;50.00;43.33;;;;;;;;4964617;28;45506;-73
2023/12/02 07:52:18;;;;;;;;;60.67;43.67;;;;;;;;4961617;28;45306;-73
2023/12/02 07:54:43;;;;;;;;;58.00;45.67;;;;;;;;4963696;28;45393;-72
2023/12/02 07:57:09;;;;;;;;;64.00;44.00;;;;;;;;4960546;28;45416;-73
2023/12/02 07:59:34;;;;;;;;;56.33;43.00;;;;;;;;4956059;28;45409;-75
2023/12/02 08:01:59;;;;;;;;;60.33;44.00;;;;;;;;4961359;28;45216;-73
2023/12/02 08:04:24;;;;;;;;;50.67;41.00;;;;;;;;4962328;28;45259;-76
2023/12/02 08:06:49;;;;;;;;;62.67;43.00;;;;;;;;4970207;28;45567;-73
2023/12/02 08:09:14;;;;;;;;;60.00;42.33;;;;;;;;4956714;28;45745;-73
2023/12/02 08:11:40;;;;;;;;;57.67;45.33;;;;;;;;4960676;28;45144;-73
2023/12/02 08:14:06;;;;;;;;;64.33;48.67;;;;;;;;4942401;28;45319;-73
2023/12/02 08:16:31;;;;;;;;;52.33;45.33;;;;;;;;4960995;28;45219;-73
2023/12/02 08:18:56;;;;;;;;;64.33;46.33;;;;;;;;4955602;28;46574;-73
2023/12/02 08:21:21;;;;;;;;;65.67;45.67;;;;;;;;4960788;28;45266;-73
2023/12/02 08:23:46;;;;;;;;;53.33;43.00;;;;;;;;4956644;28;44868;-73
2023/12/02 08:26:12;;;;;;;;;62.67;47.00;;;;;;;;4960111;28;45332;-73
2023/12/02 08:28:37;;;;;;;;;61.67;45.33;;;;;;;;4957288;28;46186;-73
2023/12/02 08:31:02;;;;;;;;;62.33;45.67;;;;;;;;4960844;28;45406;-73
2023/12/02 08:33:27;;;;;;;;;54.67;47.00;;;;;;;;4958434;28;45298;-73
2023/12/02 08:35:52;;;;;;;;;59.67;48.00;;;;;;;;4960813;28;45277;-73
2023/12/02 08:38:18;;;;;;;;;57.00;45.00;;;;;;;;4942002;28;47110;-74
2023/12/02 08:40:43;;;;;;;;;66.00;46.33;;;;;;;;4960700;28;45383;-73
2023/12/02 08:43:08;;;;;;;;;64.33;45.67;;;;;;;;4958357;28;45348;-73
2023/12/02 08:45:33;;;;;;;;;58.33;45.33;;;;;;;;4942447;28;45763;-73
2023/12/02 08:47:58;;;;;;;;;61.67;45.33;;;;;;;;4957429;28;46181;-73
2023/12/02 08:50:24;;;;;;;;;70.67;47.00;;;;;;;;4960084;28;45308;-73
2023/12/02 08:52:50;;;;;;;;;65.00;50.00;;;;;;;;4957747;28;45452;-73
2023/12/02 08:55:15;;;;;;;;;67.33;47.67;;;;;;;;4960836;28;45613;-73
2023/12/02 08:57:40;;;;;;;;;65.67;50.00;;;;;;;;4957636;28;45641;-73
2023/12/02 09:00:06;;;;;;;;;62.00;51.33;;;;;;;;4956521;28;45314;-73
2023/12/02 09:02:31;;;;;;;;;68.00;49.33;;;;;;;;4958147;28;45254;-72
2023/12/02 09:04:57;;;;;;;;;73.00;49.33;;;;;;;;4958476;28;45361;-72
2023/12/02 09:07:22;;;;;;;;;64.67;47.00;;;;;;;;4947787;28;47443;-73
2023/12/02 09:09:48;;;;;;;;;58.33;47.00;;;;;;;;4942616;28;45376;-74
2023/12/02 09:12:13;;;;;;;;;66.33;46.33;;;;;;;;4958636;28;45469;-72
2023/12/02 09:14:39;;;;;;;;;75.33;47.00;;;;;;;;4958188;28;45139;-74
2023/12/02 09:17:04;;;;;;;;;63.33;50.67;;;;;;;;4958874;28;45626;-73
2023/12/02 09:19:29;;;;;;;;;54.00;47.33;;;;;;;;4936070;28;45280;-72
2023/12/02 09:21:54;;;;;;;;;70.00;53.33;;;;;;;;4960158;28;45196;-74
2023/12/02 09:24:28;;;;;;;;;65.67;50.33;;;;;;;;4956246;28;45389;-74
2023/12/02 09:26:54;;;;;;;;;64.33;46.67;;;;;;;;4942355;28;47209;-72
2023/12/02 09:29:20;;;;;;;;;66.33;45.00;;;;;;;;4956770;28;45707;-74
2023/12/02 09:31:45;;;;;;;;;68.67;53.00;;;;;;;;4941925;28;45291;-74
2023/12/02 09:34:30;;;;;;;;;65.67;52.00;;;;;;;;4956371;28;45469;-74
2023/12/02 09:36:56;;;;;;;;;65.67;49.33;;;;;;;;4958208;28;45457;-74
2023/12/02 09:39:21;;;;;;;;;65.00;45.00;;;;;;;;4958170;28;45361;-74
2023/12/02 09:41:50;;;;;;;;;71.67;50.67;;;;;;;;4960184;28;45391;-74
2023/12/02 09:44:15;;;;;;;;;68.33;48.67;;;;;;;;4952637;28;45336;-74
2023/12/02 09:46:51;;;;;;;;;64.00;46.00;;;;;;;;4961912;28;45543;-74
2023/12/02 09:49:29;;;;;;;;;68.33;52.33;;;;;;;;4956042;28;45329;-74
2023/12/02 09:52:07;;;;;;;;;59.33;47.33;;;;;;;;4959569;28;45268;-74
2023/12/02 09:54:47;;;;;;;;;67.67;50.00;;;;;;;;4954601;28;45416;-74
2023/12/02 09:57:16;;;;;;;;;54.67;44.67;;;;;;;;4939401;28;47525;-74
2023/12/02 09:59:55;;;;;;;;;68.00;49.00;;;;;;;;4955009;28;45276;-74
2023/12/02 10:02:39;;;;;;;;;65.67;42.67;;;;;;;;4945284;28;45359;-74
2023/12/02 10:05:14;;;;;;;;;74.00;52.33;;;;;;;;4956941;28;45230;-74
2023/12/02 10:07:54;;;;;;;;;74.67;52.00;;;;;;;;4960775;28;45490;-74
2023/12/02 10:10:25;;;;;;;;;72.00;50.67;;;;;;;;4958493;28;45425;-74
2023/12/02 10:12:50;;;;;;;;;68.00;49.67;;;;;;;;4939174;28;45478;-74
2023/12/02 10:15:16;;;;;;;;;66.25;45.75;;;;;;;;4957454;28;45338;-74
2023/12/02 10:17:50;;;;;;;;;66.00;46.33;;;;;;;;4938570;28;47300;-74
2023/12/02 10:20:16;;;;;;;;;60.67;47.33;;;;;;;;4954998;28;45404;-74
2023/12/02 10:22:45;;;;;;;;;67.00;48.00;;;;;;;;4956606;28;45326;-73
2023/12/02 10:25:16;;;;;;;;;69.33;48.33;;;;;;;;4959283;28;45298;-74
2023/12/02 10:27:42;;;;;;;;;66.33;48.00;;;;;;;;4956692;28;46566;-74
2023/12/02 10:30:14;;;;;;;;;63.33;47.00;;;;;;;;4941430;28;45270;-74
2023/12/02 10:32:42;;;;;;;;;65.33;49.67;;;;;;;;4957471;28;45338;-74
2023/12/02 10:35:31;;;;;;;;;63.00;50.00;;;;;;;;4958781;28;45211;-74
2023/12/02 10:38:10;;;;;;;;;58.67;46.33;;;;;;;;4927853;28;47340;-74
2023/12/02 10:40:35;;;;;;;;;63.00;46.33;;;;;;;;4954098;28;44807;-74
2023/12/02 10:43:19;;;;;;;;;64.00;45.67;;;;;;;;4940202;28;45417;-73
2023/12/02 10:45:44;;;;;;;;;64.33;50.00;;;;;;;;4947060;28;46145;-74
2023/12/02 10:48:11;;;;;;;;;67.67;48.33;;;;;;;;4952361;28;45500;-72
2023/12/02 10:50:38;;;;;;;;;75.67;49.67;;;;;;;;4958813;28;45408;-74
2023/12/02 10:53:04;;;;;;;;;61.33;46.00;;;;;;;;4935270;28;45455;-74
2023/12/02 10:55:30;;;;;;;;;60.33;43.33;;;;;;;;4958918;28;45235;-74
2023/12/02 10:57:57;;;;;;;;;69.67;46.67;;;;;;;;4955339;28;47510;-73
2023/12/02 11:00:23;;;;;;;;;65.67;44.33;;;;;;;;4961290;28;45376;-74
2023/12/02 11:02:56;;;;;;;;;59.00;46.00;;;;;;;;4958099;28;45335;-74
2023/12/02 11:05:23;;;;;;;;;68.67;47.33;;;;;;;;4961116;28;45227;-74
2023/12/02 11:07:52;;;;;;;;;52.75;42.50;;;;;;;;4946915;28;45703;-74
2023/12/02 11:10:23;;;;;;;;;38.75;33.00;;;;;;;;4960633;28;45385;-73
2023/12/02 11:12:54;;;;;;;;;54.25;44.25;;;;;;;;4958067;28;45460;-74
2023/12/02 11:15:23;;;;;;;;;53.75;43.75;;;;;;;;4960145;28;45142;-73
2023/12/02 11:17:55;;;;;;;;;61.00;46.50;;;;;;;;4958255;28;45536;-75
2023/12/02 11:20:22;;;;;;;;;49.75;42.50;;;;;;;;4962031;28;45547;-74
2023/12/02 11:23:22;;;;;;;;;59.75;41.50;;;;;;;;4959775;28;45228;-74
2023/12/02 11:26:14;;;;;;;;;50.00;41.75;;;;;;;;4882902;29;45606;-74
2023/12/02 11:28:55;;;;;;;;;63.50;43.25;;;;;;;;4952765;28;45708;-73
2023/12/02 11:31:26;;;;;;;;;56.50;42.50;;;;;;;;4944583;28;44800;-75
2023/12/02 11:34:10;;;;;;;;;54.00;43.50;;;;;;;;4956338;28;45282;-74
2023/12/02 11:36:41;;;;;;;;;47.25;37.75;;;;;;;;4955126;28;45445;-77
2023/12/02 11:39:27;;;;;;;;;58.50;43.00;;;;;;;;4954350;28;45502;-74
2023/12/02 11:41:59;;;;;;;;;48.25;40.00;;;;;;;;4962757;28;45422;-73
2023/12/02 11:44:36;;;;;;;;;55.50;37.00;;;;;;;;4961701;28;45381;-74
2023/12/02 11:47:01;;;;;;;;;45.75;36.00;;;;;;;;4947240;28;45320;-73
2023/12/02 11:49:26;;;;;;;;;59.75;41.25;;;;;;;;4958112;28;45379;-74
2023/12/02 11:51:51;;;;;;;;;52.50;40.75;;;;;;;;4943472;28;44749;-74
2023/12/02 11:54:35;;;;;;;;;50.75;40.75;;;;;;;;4955373;28;44801;-73
2023/12/02 11:57:27;;;;;;;;;47.25;41.25;;;;;;;;4946322;28;45349;-74
2023/12/02 11:59:55;;;;;;;;;44.75;37.25;;;;;;;;4944631;28;46949;-74
2023/12/02 12:02:26;;;;;;;;;54.50;38.75;;;;;;;;4950759;28;45225;-73
2023/12/02 12:05:06;;;;;;;;;56.50;39.50;;;;;;;;4960017;28;45535;-74
2023/12/02 12:07:32;;;;;;;;;47.00;38.25;;;;;;;;4959639;28;45534;-74
2023/12/02 12:10:12;;;;;;;;;53.50;41.00;;;;;;;;4960525;28;45554;-73
2023/12/02 12:12:39;;;;;;;;;49.75;40.50;;;;;;;;4959120;28;45619;-73
2023/12/02 12:15:04;;;;;;;;;50.75;40.25;;;;;;;;4961140;28;45346;-74
2023/12/02 12:17:30;;;;;;;;;52.00;40.75;;;;;;;;4958995;28;45321;-73
2023/12/02 12:19:59;;;;;;;;;47.25;40.75;;;;;;;;4958606;28;45274;-73
2023/12/02 12:22:24;;;;;;;;;47.00;39.75;;;;;;;;4958688;28;45500;-73
2023/12/02 12:24:50;;;;;;;;;49.50;39.50;;;;;;;;4959671;28;45471;-73
2023/12/02 12:27:15;;;;;;;;;44.25;37.75;;;;;;;;4940949;28;45785;-73
2023/12/02 12:29:50;;;;;;;;;45.25;39.00;;;;;;;;4959046;28;45328;-73
2023/12/02 12:32:16;;;;;;;;;49.00;31.25;;;;;;;;4941469;28;45392;-73
2023/12/02 12:34:42;;;;;;;;;47.50;38.50;;;;;;;;4943018;28;45320;-73
2023/12/02 12:37:07;;;;;;;;;43.25;37.00;;;;;;;;4960021;28;45446;-73
2023/12/02 12:39:32;;;;;;;;;41.75;34.25;;;;;;;;4956420;28;45662;-73
2023/12/02 12:41:57;;;;;;;;;34.75;29.50;;;;;;;;4960557;28;45327;-73
2023/12/02 12:44:24;;;;;;;;;44.75;38.00;;;;;;;;4957349;28;45679;-73
2023/12/02 12:46:52;;;;;;;;;32.00;27.75;;;;;;;;4960761;28;45438;-74
2023/12/02 12:49:20;;;;;;;;;32.25;24.25;;;;;;;;4941538;28;46703;-77
2023/12/02 12:51:47;;;;;;;;;21.75;21.75;;;;;;;;4951632;28;45338;-75
2023/12/02 12:54:14;;;;;;;;;28.25;22.00;;;;;;;;4957004;28;45349;-75
2023/12/02 12:56:39;;;;;;;;;28.00;26.25;;;;;;;;4959186;28;44739;-74
2023/12/02 12:59:08;;;;;;;;;29.75;23.50;;;;;;;;4940904;28;45503;-75
2023/12/02 13:01:33;;;;;;;;;33.25;25.00;;;;;;;;4952989;28;45299;-75
2023/12/02 13:04:04;;;;;;;;;38.00;21.50;;;;;;;;4953992;28;45871;-75
2023/12/02 13:06:43;;;;;;;;;24.25;20.00;;;;;;;;4949022;28;46217;-75
2023/12/02 13:09:09;;;;;;;;;23.75;19.75;;;;;;;;4956604;28;46595;-75
2023/12/02 13:11:46;;;;;;;;;33.00;25.00;;;;;;;;4942180;28;45697;-75
2023/12/02 13:14:13;;;;;;;;;29.75;20.75;;;;;;;;4954191;28;45585;-76
2023/12/02 13:16:39;;;;;;;;;14.75;13.00;;;;;;;;4960060;28;45235;-75
2023/12/02 13:19:07;;;;;;;;;24.25;22.25;;;;;;;;4941933;28;46992;-75
2023/12/02 13:21:33;;;;;;;;;25.25;19.00;;;;;;;;4957847;28;45434;-75
2023/12/02 13:24:01;;;;;;;;;27.50;23.00;;;;;;;;4957102;28;45452;-75
2023/12/02 13:26:34;;;;;;;;;37.00;31.00;;;;;;;;4942321;28;46315;-75
2023/12/02 13:29:03;;;;;;;;;33.25;29.00;;;;;;;;4957498;28;45626;-75
2023/12/02 13:31:29;;;;;;;;;29.75;25.00;;;;;;;;4960220;28;45243;-74
2023/12/02 13:34:16;;;;;;;;;31.75;23.75;;;;;;;;4957738;28;45381;-75
2023/12/02 13:36:48;;;;;;;;;34.75;25.25;;;;;;;;4942230;28;46112;-75
2023/12/02 13:39:19;;;;;;;;;45.25;36.50;;;;;;;;4957288;28;45535;-77
2023/12/02 13:41:46;;;;;;;;;40.25;30.00;;;;;;;;4963539;28;45307;-75
2023/12/02 13:44:12;;;;;;;;;35.75;31.00;;;;;;;;4941712;28;45266;-76
2023/12/02 13:46:42;;;;;;;;;27.25;23.75;;;;;;;;4942192;28;45830;-74
2023/12/02 13:49:20;;;;;;;;;36.25;30.00;;;;;;;;4944535;28;46949;-74
2023/12/02 13:51:49;;;;;;;;;33.75;25.75;;;;;;;;4962888;28;45409;-76
2023/12/02 13:54:22;;;;;;;;;28.50;23.00;;;;;;;;4953683;28;45210;-76
2023/12/02 13:57:00;;;;;;;;;27.00;22.00;;;;;;;;4940944;28;45700;-76
2023/12/02 13:59:45;;;;;;;;;37.25;30.00;;;;;;;;4956085;28;45526;-76
2023/12/02 14:02:33;;;;;;;;;35.00;29.25;;;;;;;;4960724;28;45160;-76
2023/12/02 14:05:01;;;;;;;;;31.25;23.50;;;;;;;;4960809;28;45357;-76
2023/12/02 14:07:26;;;;;;;;;29.50;23.00;;;;;;;;4963029;28;45354;-75
2023/12/02 14:09:53;;;;;;;;;36.75;27.75;;;;;;;;4961888;28;45395;-75
2023/12/02 14:12:24;;;;;;;;;32.50;29.00;;;;;;;;4957359;28;45438;-74
2023/12/02 14:15:09;;;;;;;;;30.00;24.50;;;;;;;;4956724;28;45320;-74
2023/12/02 14:17:53;;;;;;;;;31.75;30.00;;;;;;;;4961875;28;45496;-72
2023/12/02 14:20:27;;;;;;;;;40.25;31.75;;;;;;;;4958477;28;45330;-73
2023/12/02 14:23:05;;;;;;;;;27.50;27.50;;;;;;;;4941150;28;45417;-73
2023/12/02 14:25:32;;;;;;;;;38.00;27.75;;;;;;;;4951578;28;44796;-72
2023/12/02 14:28:15;;;;;;;;;33.25;28.75;;;;;;;;4956953;28;45520;-71
2023/12/02 14:30:59;;;;;;;;;31.00;29.00;;;;;;;;4953437;28;45666;-73
2023/12/02 14:33:35;;;;;;;;;31.75;27.50;;;;;;;;4940330;28;45623;-73
2023/12/02 14:36:08;;;;;;;;;31.75;25.25;;;;;;;;4942483;28;45498;-74
2023/12/02 14:38:53;;;;;;;;;36.25;28.00;;;;;;;;4960207;28;45740;-73
2023/12/02 14:41:22;;;;;;;;;35.00;28.25;;;;;;;;4928116;28;45469;-73
2023/12/02 14:44:06;;;;;;;;;31.50;26.75;;;;;;;;4945027;28;44757;-73
2023/12/02 14:46:31;;;;;;;;;33.00;26.00;;;;;;;;4946643;28;45478;-73
2023/12/02 14:48:57;;;;;;;;;37.25;33.00;;;;;;;;4944943;28;45465;-73
2023/12/02 14:51:23;;;;;;;;;31.00;26.25;;;;;;;;4961221;28;45402;-73
2023/12/02 14:53:53;;;;;;;;;30.75;27.25;;;;;;;;4961555;28;45456;-73
2023/12/02 14:56:27;;;;;;;;;24.00;22.00;;;;;;;;4962858;28;45393;-73
2023/12/02 14:58:52;;;;;;;;;26.75;22.75;;;;;;;;4943459;28;45738;-73
2023/12/02 15:01:18;;;;;;;;;24.00;20.75;;;;;;;;4961777;28;45404;-73
2023/12/02 15:03:43;;;;;;;;;26.25;21.00;;;;;;;;4943879;28;45414;-73
2023/12/02 15:06:10;;;;;;;;;24.75;20.75;;;;;;;;4962765;28;45400;-74
2023/12/02 15:08:39;;;;;;;;;27.25;21.00;;;;;;;;4964853;28;45733;-73
2023/12/02 15:11:04;;;;;;;;;31.00;20.00;;;;;;;;4948766;28;47556;-73
2023/12/02 15:13:30;;;;;;;;;27.25;20.50;;;;;;;;4961325;28;45289;-73
2023/12/02 15:15:56;;;;;;;;;27.75;20.50;;;;;;;;4960680;28;45358;-74
2023/12/02 15:18:27;;;;;;;;;25.25;19.50;;;;;;;;4959508;28;45262;-73
2023/12/02 15:21:07;;;;;;;;;27.25;21.75;;;;;;;;4958440;28;45445;-73
2023/12/02 15:23:32;;;;;;;;;24.25;22.25;;;;;;;;4942895;28;45590;-73
2023/12/02 15:25:58;;;;;;;;;35.25;21.50;;;;;;;;4941816;28;45251;-74
2023/12/02 15:28:29;;;;;;;;;23.25;18.75;;;;;;;;4942897;28;46500;-72
2023/12/02 15:31:13;;;;;;;;;24.50;20.25;;;;;;;;4961563;28;46783;-73
2023/12/02 15:33:49;;;;;;;;;21.75;20.00;;;;;;;;4940400;28;45554;-75
2023/12/02 15:36:15;;;;;;;;;30.00;21.50;;;;;;;;4960131;28;45216;-73
2023/12/02 15:38:42;;;;;;;;;25.50;21.75;;;;;;;;4956527;28;45319;-73
2023/12/02 15:41:07;;;;;;;;;25.25;24.50;;;;;;;;4931471;28;47509;-73
2023/12/02 15:43:33;;;;;;;;;25.75;23.25;;;;;;;;4942523;28;45220;-73
2023/12/02 15:45:59;;;;;;;;;26.75;24.75;;;;;;;;4961557;28;45227;-73
2023/12/02 15:48:24;;;;;;;;;33.75;27.50;;;;;;;;4954026;28;45926;-73
2023/12/02 15:50:49;;;;;;;;;28.50;25.75;;;;;;;;4952036;28;45435;-73
2023/12/02 15:53:15;;;;;;;;;25.50;17.00;;;;;;;;4956092;28;45282;-73
2023/12/02 15:55:40;;;;;;;;;30.75;23.00;;;;;;;;4961628;28;45314;-73
2023/12/02 15:58:06;;;;;;;;;32.75;25.25;;;;;;;;4954350;28;45552;-74
2023/12/02 16:00:31;;;;;;;;;24.50;20.00;;;;;;;;4946046;28;47739;-74
2023/12/02 16:02:56;;;;;;;;;35.75;28.00;;;;;;;;4954341;28;45329;-74
2023/12/02 16:05:23;;;;;;;;;40.00;33.00;;;;;;;;4962650;28;45393;-74
2023/12/02 16:07:49;;;;;;;;;43.75;30.50;;;;;;;;4965182;28;45455;-74
2023/12/02 16:10:14;;;;;;;;;38.00;32.50;;;;;;;;4933348;28;46368;-74
2023/12/02 16:12:47;;;;;;;;;30.00;24.75;;;;;;;;4961642;28;45480;-74
2023/12/02 16:15:13;;;;;;;;;39.50;32.00;;;;;;;;4964761;28;45302;-74
2023/12/02 16:17:39;;;;;;;;;48.00;38.00;;;;;;;;4943897;28;45579;-73
2023/12/02 16:20:05;;;;;;;;;42.50;38.25;;;;;;;;4956037;28;45282;-73
2023/12/02 16:22:30;;;;;;;;;63.50;45.50;;;;;;;;4946737;28;45353;-73
2023/12/02 16:24:56;;;;;;;;;41.50;37.25;;;;;;;;4961680;28;45402;-73
2023/12/02 16:27:25;;;;;;;;;44.50;34.25;;;;;;;;4960344;28;45411;-73
2023/12/02 16:29:53;;;;;;;;;62.25;47.25;;;;;;;;4954795;28;45748;-73
2023/12/02 16:32:19;;;;;;;;;60.00;46.33;;;;;;;;4949044;28;45382;-74
2023/12/02 16:34:45;;;;;;;;;61.00;45.33;;;;;;;;4968020;28;45230;-73
2023/12/02 16:37:13;;;;;;;;;65.00;50.33;;;;;;;;4976676;28;44862;-73
2023/12/02 16:39:39;;;;;;;;;63.00;49.67;;;;;;;;4950355;28;46751;-73
2023/12/02 16:42:04;;;;;;;;;64.33;48.00;;;;;;;;4971282;28;45390;-73
2023/12/02 16:44:29;;;;;;;;;71.67;52.00;;;;;;;;4954326;28;45346;-73
2023/12/02 16:46:54;;;;;;;;;70.67;51.67;;;;;;;;4956335;28;45255;-73
2023/12/02 16:49:20;;;;;;;;;75.33;55.00;;;;;;;;4961378;28;45546;-73
2023/12/02 16:51:45;;;;;;;;;73.33;56.00;;;;;;;;4969510;28;45514;-73
2023/12/02 16:54:11;;;;;;;;;64.00;50.67;;;;;;;;4957052;28;45543;-73
2023/12/02 16:56:37;;;;;;;;;56.67;47.67;;;;;;;;4960682;28;45317;-74
2023/12/02 16:59:04;;;;;;;;;55.33;44.33;;;;;;;;4955846;28;46343;-73
2023/12/02 17:01:34;;;;;;;;;44.50;41.25;;;;;;;;4943107;28;45385;-73
2023/12/02 17:03:59;;;;;;;;;52.75;42.00;;;;;;;;4958960;28;45552;-73
2023/12/02 17:06:25;;;;;;;;;52.75;41.75;;;;;;;;4971737;28;44856;-73
2023/12/02 17:08:52;;;;;;;;;59.33;46.00;;;;;;;;4943611;28;46552;-74
2023/12/02 17:11:20;;;;;;;;;54.00;41.00;;;;;;;;4964649;28;45247;-73
2023/12/02 17:13:55;;;;;;;;;66.33;46.33;;;;;;;;4959631;28;45470;-73
2023/12/02 17:16:30;;;;;;;;;71.67;51.33;;;;;;;;4962097;28;45283;-73
2023/12/02 17:21:44;;;;;;;;;70.67;55.33;;;;;;;;4963123;28;45220;-73
2023/12/02 17:24:17;;;;;;;;;77.67;59.33;;;;;;;;4937175;28;45477;-73
2023/12/02 17:26:42;;;;;;;;;77.33;57.67;;;;;;;;4942917;28;45725;-73
2023/12/02 17:29:14;;;;;;;;;72.33;55.67;;;;;;;;4958087;28;46435;-73
2023/12/02 17:31:40;;;;;;;;;63.67;51.33;;;;;;;;4939323;28;45265;-73
2023/12/02 17:34:05;;;;;;;;;67.33;52.33;;;;;;;;4942049;28;45404;-73
2023/12/02 17:36:30;;;;;;;;;71.33;57.33;;;;;;;;4959926;28;45410;-73
2023/12/02 17:38:56;;;;;;;;;72.67;53.67;;;;;;;;4941504;28;46575;-73
2023/12/02 17:41:21;;;;;;;;;69.00;54.33;;;;;;;;4959267;28;45433;-72
2023/12/02 17:43:46;;;;;;;;;69.67;52.67;;;;;;;;4957072;28;45509;-72
2023/12/02 17:46:11;;;;;;;;;73.33;56.00;;;;;;;;4944600;28;45637;-73
2023/12/02 17:48:36;;;;;;;;;66.67;51.33;;;;;;;;4943376;28;47616;-73
2023/12/02 17:51:02;;;;;;;;;65.33;51.00;;;;;;;;4964652;28;45425;-72
2023/12/02 17:53:27;;;;;;;;;67.67;53.00;;;;;;;;4954177;28;45264;-72
2023/12/02 17:55:52;;;;;;;;;65.00;48.00;;;;;;;;4946740;28;45752;-72
2023/12/02 17:58:17;;;;;;;;;75.00;57.67;;;;;;;;4951960;28;45506;-72
2023/12/02 18:00:43;;;;;;;;;66.33;51.67;;;;;;;;4958796;28;45306;-72
2023/12/02 18:03:08;;;;;;;;;65.00;48.00;;;;;;;;4943261;28;45455;-72
2023/12/02 18:05:34;;;;;;;;;50.00;36.33;;;;;;;;4961084;28;45355;-72
2023/12/02 18:07:59;;;;;;;;;72.00;51.00;;;;;;;;4942407;28;45380;-72
2023/12/02 18:10:24;;;;;;;;;63.33;48.33;;;;;;;;4963477;28;45361;-72
2023/12/02 18:12:49;;;;;;;;;63.67;50.00;;;;;;;;4959672;28;45668;-73
2023/12/02 18:15:14;;;;;;;;;67.67;51.00;;;;;;;;4962666;28;45422;-73
2023/12/02 18:17:40;;;;;;;;;68.33;52.67;;;;;;;;4960114;28;45266;-72
2023/12/02 18:20:05;;;;;;;;;58.67;43.33;;;;;;;;4963010;28;45349;-72
2023/12/02 18:22:32;;;;;;;;;54.33;46.00;;;;;;;;4944295;28;45350;-74